sensor_id;sensor_type;location;lat;lon;timestamp;temperature;humidity
8372;DHT22;4223;48.724;8.982;2022-09-17T00:02:11;9.30;82.60
8372;DHT22;4223;48.724;8.982;2022-09-17T00:04:38;9.40;76.50
8372;DHT22;4223;48.724;8.982;2022-09-17T00:07:05;9.30;70.40
8372;DHT22;4223;48.724;8.982;2022-09-17T00:09:32;9.30;69.90
8372;DHT22;4223;48.724;8.982;2022-09-17T00:11:58;9.30;65.70
8372;DHT22;4223;48.724;8.982;2022-09-17T00:14:27;9.20;73.60
8372;DHT22;4223;48.724;8.982;2022-09-17T00:16:54;9.20;74.50
8372;DHT22;4223;48.724;8.982;2022-09-17T00:19:21;9.10;71.90
8372;DHT22;4223;48.724;8.982;2022-09-17T00:21:50;9.10;76.80
8372;DHT22;4223;48.724;8.982;2022-09-17T00:24:17;9.10;79.60
8372;DHT22;4223;48.724;8.982;2022-09-17T00:26:45;9.10;82.20
8372;DHT22;4223;48.724;8.982;2022-09-17T00:29:12;9.20;82.30
8372;DHT22;4223;48.724;8.982;2022-09-17T00:31:40;9.10;78.60
8372;DHT22;4223;48.724;8.982;2022-09-17T00:34:07;9.20;80.80
8372;DHT22;4223;48.724;8.982;2022-09-17T00:36:35;9.20;90.40
8372;DHT22;4223;48.724;8.982;2022-09-17T00:39:03;9.30;67.10
8372;DHT22;4223;48.724;8.982;2022-09-17T00:41:31;9.30;68.10
8372;DHT22;4223;48.724;8.982;2022-09-17T00:44:00;9.30;73.50
8372;DHT22;4223;48.724;8.982;2022-09-17T00:46:31;9.40;75.50
8372;DHT22;4223;48.724;8.982;2022-09-17T00:49:03;9.40;74.30
8372;DHT22;4223;48.724;8.982;2022-09-17T00:51:34;9.40;67.10
8372;DHT22;4223;48.724;8.982;2022-09-17T00:54:03;9.40;67.30
8372;DHT22;4223;48.724;8.982;2022-09-17T00:56:36;9.50;77.40
8372;DHT22;4223;48.724;8.982;2022-09-17T00:59:05;9.50;65.70
8372;DHT22;4223;48.724;8.982;2022-09-17T01:01:32;9.50;65.70
8372;DHT22;4223;48.724;8.982;2022-09-17T01:04:01;9.50;65.80
8372;DHT22;4223;48.724;8.982;2022-09-17T01:06:32;9.50;66.90
8372;DHT22;4223;48.724;8.982;2022-09-17T01:09:14;9.50;73.10
8372;DHT22;4223;48.724;8.982;2022-09-17T01:12:06;9.50;71.90
8372;DHT22;4223;48.724;8.982;2022-09-17T01:14:51;9.50;70.60
8372;DHT22;4223;48.724;8.982;2022-09-17T01:17:25;9.50;58.90
8372;DHT22;4223;48.724;8.982;2022-09-17T01:23:01;9.50;57.50
8372;DHT22;4223;48.724;8.982;2022-09-17T01:25:39;9.50;56.40
8372;DHT22;4223;48.724;8.982;2022-09-17T01:28:29;9.50;63.40
8372;DHT22;4223;48.724;8.982;2022-09-17T01:31:25;9.40;48.70
8372;DHT22;4223;48.724;8.982;2022-09-17T01:33:59;9.40;61.70
8372;DHT22;4223;48.724;8.982;2022-09-17T01:36:40;9.40;64.50
8372;DHT22;4223;48.724;8.982;2022-09-17T01:39:15;9.40;66.40
8372;DHT22;4223;48.724;8.982;2022-09-17T01:41:50;9.30;70.80
8372;DHT22;4223;48.724;8.982;2022-09-17T01:44:30;9.30;75.50
8372;DHT22;4223;48.724;8.982;2022-09-17T01:47:03;9.30;68.30
8372;DHT22;4223;48.724;8.982;2022-09-17T01:49:35;9.20;73.80
8372;DHT22;4223;48.724;8.982;2022-09-17T01:52:03;9.20;70.00
8372;DHT22;4223;48.724;8.982;2022-09-17T01:54:34;9.20;71.70
8372;DHT22;4223;48.724;8.982;2022-09-17T01:57:07;9.10;79.20
8372;DHT22;4223;48.724;8.982;2022-09-17T01:59:37;9.10;65.80
8372;DHT22;4223;48.724;8.982;2022-09-17T02:02:11;9.10;71.70
8372;DHT22;4223;48.724;8.982;2022-09-17T02:04:43;9.10;71.60
8372;DHT22;4223;48.724;8.982;2022-09-17T02:07:17;9.10;77.00
8372;DHT22;4223;48.724;8.982;2022-09-17T02:09:50;9.10;74.90
8372;DHT22;4223;48.724;8.982;2022-09-17T02:12:22;9.10;70.30
8372;DHT22;4223;48.724;8.982;2022-09-17T02:14:51;9.10;71.70
8372;DHT22;4223;48.724;8.982;2022-09-17T02:17:24;9.10;69.90
8372;DHT22;4223;48.724;8.982;2022-09-17T02:19:53;9.10;69.50
8372;DHT22;4223;48.724;8.982;2022-09-17T02:22:24;9.10;74.10
8372;DHT22;4223;48.724;8.982;2022-09-17T02:25:00;9.10;70.80
8372;DHT22;4223;48.724;8.982;2022-09-17T02:27:36;9.10;70.00
8372;DHT22;4223;48.724;8.982;2022-09-17T02:30:06;9.20;71.10
8372;DHT22;4223;48.724;8.982;2022-09-17T02:32:35;9.20;60.40
8372;DHT22;4223;48.724;8.982;2022-09-17T02:35:02;9.20;59.10
8372;DHT22;4223;48.724;8.982;2022-09-17T02:37:29;9.20;60.10
8372;DHT22;4223;48.724;8.982;2022-09-17T02:39:56;9.20;61.50
8372;DHT22;4223;48.724;8.982;2022-09-17T02:42:30;9.10;65.30
8372;DHT22;4223;48.724;8.982;2022-09-17T02:45:04;9.10;61.20
8372;DHT22;4223;48.724;8.982;2022-09-17T02:47:56;9.20;68.80
8372;DHT22;4223;48.724;8.982;2022-09-17T02:50:38;9.20;63.50
8372;DHT22;4223;48.724;8.982;2022-09-17T02:53:23;9.20;71.10
8372;DHT22;4223;48.724;8.982;2022-09-17T02:56:00;9.10;62.60
8372;DHT22;4223;48.724;8.982;2022-09-17T02:58:32;9.10;63.40
8372;DHT22;4223;48.724;8.982;2022-09-17T03:01:05;9.10;65.90
8372;DHT22;4223;48.724;8.982;2022-09-17T03:03:37;9.10;64.80
8372;DHT22;4223;48.724;8.982;2022-09-17T03:06:05;9.00;65.50
8372;DHT22;4223;48.724;8.982;2022-09-17T03:08:35;8.90;61.30
8372;DHT22;4223;48.724;8.982;2022-09-17T03:11:03;8.90;72.80
8372;DHT22;4223;48.724;8.982;2022-09-17T03:13:31;8.80;71.30
8372;DHT22;4223;48.724;8.982;2022-09-17T03:15:59;8.80;76.70
8372;DHT22;4223;48.724;8.982;2022-09-17T03:18:26;8.80;84.00
8372;DHT22;4223;48.724;8.982;2022-09-17T03:20:54;8.90;85.10
8372;DHT22;4223;48.724;8.982;2022-09-17T03:23:21;8.80;81.60
8372;DHT22;4223;48.724;8.982;2022-09-17T03:25:48;8.80;80.50
8372;DHT22;4223;48.724;8.982;2022-09-17T03:28:15;8.80;80.70
8372;DHT22;4223;48.724;8.982;2022-09-17T03:30:42;8.70;80.70
8372;DHT22;4223;48.724;8.982;2022-09-17T03:33:10;8.70;91.90
8372;DHT22;4223;48.724;8.982;2022-09-17T03:35:36;8.70;82.70
8372;DHT22;4223;48.724;8.982;2022-09-17T03:38:05;8.70;80.10
8372;DHT22;4223;48.724;8.982;2022-09-17T03:40:32;8.80;90.60
8372;DHT22;4223;48.724;8.982;2022-09-17T03:42:58;8.80;77.20
8372;DHT22;4223;48.724;8.982;2022-09-17T03:45:25;8.80;73.70
8372;DHT22;4223;48.724;8.982;2022-09-17T03:47:52;8.80;80.90
8372;DHT22;4223;48.724;8.982;2022-09-17T03:50:20;8.70;80.00
8372;DHT22;4223;48.724;8.982;2022-09-17T03:52:47;8.70;86.20
8372;DHT22;4223;48.724;8.982;2022-09-17T03:55:15;8.70;86.30
8372;DHT22;4223;48.724;8.982;2022-09-17T03:57:43;8.70;91.20
8372;DHT22;4223;48.724;8.982;2022-09-17T04:00:10;8.70;82.70
8372;DHT22;4223;48.724;8.982;2022-09-17T04:02:39;8.70;84.00
8372;DHT22;4223;48.724;8.982;2022-09-17T04:05:08;8.70;88.50
8372;DHT22;4223;48.724;8.982;2022-09-17T04:07:35;8.70;83.00
8372;DHT22;4223;48.724;8.982;2022-09-17T04:10:03;8.70;75.30
8372;DHT22;4223;48.724;8.982;2022-09-17T04:12:32;8.70;75.00
8372;DHT22;4223;48.724;8.982;2022-09-17T04:14:59;8.70;74.40
8372;DHT22;4223;48.724;8.982;2022-09-17T04:17:26;8.70;77.90
8372;DHT22;4223;48.724;8.982;2022-09-17T04:19:53;8.70;69.70
8372;DHT22;4223;48.724;8.982;2022-09-17T04:22:20;8.70;70.70
8372;DHT22;4223;48.724;8.982;2022-09-17T04:24:47;8.60;79.60
8372;DHT22;4223;48.724;8.982;2022-09-17T04:27:13;8.60;73.20
8372;DHT22;4223;48.724;8.982;2022-09-17T04:29:42;8.60;79.60
8372;DHT22;4223;48.724;8.982;2022-09-17T04:32:09;8.50;76.30
8372;DHT22;4223;48.724;8.982;2022-09-17T04:34:35;8.50;88.10
8372;DHT22;4223;48.724;8.982;2022-09-17T04:37:02;8.40;90.00
8372;DHT22;4223;48.724;8.982;2022-09-17T04:39:29;8.40;90.50
8372;DHT22;4223;48.724;8.982;2022-09-17T04:41:56;8.30;94.50
8372;DHT22;4223;48.724;8.982;2022-09-17T04:44:23;8.30;94.10
8372;DHT22;4223;48.724;8.982;2022-09-17T04:46:51;8.30;91.00
8372;DHT22;4223;48.724;8.982;2022-09-17T04:49:18;8.40;92.50
8372;DHT22;4223;48.724;8.982;2022-09-17T04:51:44;8.40;90.90
8372;DHT22;4223;48.724;8.982;2022-09-17T04:54:11;8.40;89.70
8372;DHT22;4223;48.724;8.982;2022-09-17T04:56:39;8.40;89.40
8372;DHT22;4223;48.724;8.982;2022-09-17T04:59:06;8.40;89.50
8372;DHT22;4223;48.724;8.982;2022-09-17T05:01:33;8.40;90.80
8372;DHT22;4223;48.724;8.982;2022-09-17T05:04:01;8.40;90.00
8372;DHT22;4223;48.724;8.982;2022-09-17T05:06:28;8.50;85.00
8372;DHT22;4223;48.724;8.982;2022-09-17T05:08:54;8.50;88.20
8372;DHT22;4223;48.724;8.982;2022-09-17T05:11:21;8.50;87.20
8372;DHT22;4223;48.724;8.982;2022-09-17T05:13:48;8.50;81.50
8372;DHT22;4223;48.724;8.982;2022-09-17T05:16:15;8.50;90.90
8372;DHT22;4223;48.724;8.982;2022-09-17T05:18:42;8.50;91.60
8372;DHT22;4223;48.724;8.982;2022-09-17T05:21:10;8.60;91.20
8372;DHT22;4223;48.724;8.982;2022-09-17T05:23:37;8.60;87.30
8372;DHT22;4223;48.724;8.982;2022-09-17T05:26:04;8.60;83.30
8372;DHT22;4223;48.724;8.982;2022-09-17T05:28:31;8.60;77.10
8372;DHT22;4223;48.724;8.982;2022-09-17T05:30:59;8.50;77.10
8372;DHT22;4223;48.724;8.982;2022-09-17T05:33:26;8.50;82.10
8372;DHT22;4223;48.724;8.982;2022-09-17T05:35:53;8.50;80.40
8372;DHT22;4223;48.724;8.982;2022-09-17T05:38:21;8.60;76.80
8372;DHT22;4223;48.724;8.982;2022-09-17T05:40:48;8.60;74.60
8372;DHT22;4223;48.724;8.982;2022-09-17T05:43:15;8.60;66.30
8372;DHT22;4223;48.724;8.982;2022-09-17T05:45:42;8.70;60.50
8372;DHT22;4223;48.724;8.982;2022-09-17T05:48:11;8.70;67.60
8372;DHT22;4223;48.724;8.982;2022-09-17T05:50:39;8.60;71.60
8372;DHT22;4223;48.724;8.982;2022-09-17T05:53:09;8.70;71.00
8372;DHT22;4223;48.724;8.982;2022-09-17T05:55:38;8.70;65.40
8372;DHT22;4223;48.724;8.982;2022-09-17T05:58:09;8.70;70.30
8372;DHT22;4223;48.724;8.982;2022-09-17T06:00:37;8.70;66.60
8372;DHT22;4223;48.724;8.982;2022-09-17T06:03:04;8.70;69.30
8372;DHT22;4223;48.724;8.982;2022-09-17T06:05:31;8.70;69.10
8372;DHT22;4223;48.724;8.982;2022-09-17T06:07:57;8.70;70.50
8372;DHT22;4223;48.724;8.982;2022-09-17T06:10:24;8.80;68.20
8372;DHT22;4223;48.724;8.982;2022-09-17T06:12:56;8.90;68.80
8372;DHT22;4223;48.724;8.982;2022-09-17T06:15:24;8.90;58.40
8372;DHT22;4223;48.724;8.982;2022-09-17T06:17:51;8.90;72.30
8372;DHT22;4223;48.724;8.982;2022-09-17T06:20:18;9.00;53.10
8372;DHT22;4223;48.724;8.982;2022-09-17T06:22:45;9.00;62.70
8372;DHT22;4223;48.724;8.982;2022-09-17T06:25:12;9.10;57.50
8372;DHT22;4223;48.724;8.982;2022-09-17T06:27:39;9.10;60.00
8372;DHT22;4223;48.724;8.982;2022-09-17T06:30:08;9.20;40.50
8372;DHT22;4223;48.724;8.982;2022-09-17T06:32:35;9.20;46.80
8372;DHT22;4223;48.724;8.982;2022-09-17T06:35:02;9.00;35.60
8372;DHT22;4223;48.724;8.982;2022-09-17T06:37:30;9.00;39.40
8372;DHT22;4223;48.724;8.982;2022-09-17T06:39:57;9.00;42.30
8372;DHT22;4223;48.724;8.982;2022-09-17T06:42:24;9.00;38.10
8372;DHT22;4223;48.724;8.982;2022-09-17T06:44:53;9.00;31.40
8372;DHT22;4223;48.724;8.982;2022-09-17T06:47:23;9.00;42.30
8372;DHT22;4223;48.724;8.982;2022-09-17T06:49:50;9.10;43.00
8372;DHT22;4223;48.724;8.982;2022-09-17T06:52:17;9.10;39.60
8372;DHT22;4223;48.724;8.982;2022-09-17T06:54:44;9.20;34.40
8372;DHT22;4223;48.724;8.982;2022-09-17T06:57:11;9.20;56.80
8372;DHT22;4223;48.724;8.982;2022-09-17T06:59:37;9.20;50.60
8372;DHT22;4223;48.724;8.982;2022-09-17T07:02:05;9.20;69.30
8372;DHT22;4223;48.724;8.982;2022-09-17T07:04:33;9.10;72.60
8372;DHT22;4223;48.724;8.982;2022-09-17T07:07:00;9.10;74.90
8372;DHT22;4223;48.724;8.982;2022-09-17T07:09:27;9.00;82.70
8372;DHT22;4223;48.724;8.982;2022-09-17T07:11:54;9.00;67.00
8372;DHT22;4223;48.724;8.982;2022-09-17T07:14:22;8.90;75.60
8372;DHT22;4223;48.724;8.982;2022-09-17T07:16:49;8.80;91.20
8372;DHT22;4223;48.724;8.982;2022-09-17T07:19:17;8.80;92.80
8372;DHT22;4223;48.724;8.982;2022-09-17T07:21:47;8.80;92.90
8372;DHT22;4223;48.724;8.982;2022-09-17T07:24:14;8.90;93.10
8372;DHT22;4223;48.724;8.982;2022-09-17T07:26:40;9.00;93.80
8372;DHT22;4223;48.724;8.982;2022-09-17T07:29:07;9.00;94.50
8372;DHT22;4223;48.724;8.982;2022-09-17T07:31:34;9.00;88.70
8372;DHT22;4223;48.724;8.982;2022-09-17T07:34:01;9.10;87.60
8372;DHT22;4223;48.724;8.982;2022-09-17T07:36:28;9.20;95.10
8372;DHT22;4223;48.724;8.982;2022-09-17T07:38:56;9.20;89.90
8372;DHT22;4223;48.724;8.982;2022-09-17T07:41:23;9.20;92.40
8372;DHT22;4223;48.724;8.982;2022-09-17T07:43:51;9.10;99.20
8372;DHT22;4223;48.724;8.982;2022-09-17T07:46:19;9.00;97.00
8372;DHT22;4223;48.724;8.982;2022-09-17T07:48:47;8.90;99.00
8372;DHT22;4223;48.724;8.982;2022-09-17T07:51:15;8.70;99.90
8372;DHT22;4223;48.724;8.982;2022-09-17T07:53:43;8.70;99.90
8372;DHT22;4223;48.724;8.982;2022-09-17T07:56:12;8.80;99.90
8372;DHT22;4223;48.724;8.982;2022-09-17T07:58:39;8.80;99.90
8372;DHT22;4223;48.724;8.982;2022-09-17T08:01:08;8.80;99.90
8372;DHT22;4223;48.724;8.982;2022-09-17T08:03:35;8.90;99.90
8372;DHT22;4223;48.724;8.982;2022-09-17T08:06:04;9.00;99.90
8372;DHT22;4223;48.724;8.982;2022-09-17T08:08:31;9.10;99.90
8372;DHT22;4223;48.724;8.982;2022-09-17T08:10:59;9.20;99.90
8372;DHT22;4223;48.724;8.982;2022-09-17T08:13:28;9.20;99.90
8372;DHT22;4223;48.724;8.982;2022-09-17T08:15:57;9.20;99.90
8372;DHT22;4223;48.724;8.982;2022-09-17T08:18:25;9.20;99.90
8372;DHT22;4223;48.724;8.982;2022-09-17T08:20:56;9.30;98.50
8372;DHT22;4223;48.724;8.982;2022-09-17T08:23:23;9.30;99.90
8372;DHT22;4223;48.724;8.982;2022-09-17T08:25:52;9.30;99.90
8372;DHT22;4223;48.724;8.982;2022-09-17T08:28:19;9.40;99.90
8372;DHT22;4223;48.724;8.982;2022-09-17T08:30:47;9.50;99.90
8372;DHT22;4223;48.724;8.982;2022-09-17T08:33:15;9.60;99.90
8372;DHT22;4223;48.724;8.982;2022-09-17T08:35:42;9.70;97.50
8372;DHT22;4223;48.724;8.982;2022-09-17T08:38:09;9.70;93.70
8372;DHT22;4223;48.724;8.982;2022-09-17T08:40:44;9.70;93.70
8372;DHT22;4223;48.724;8.982;2022-09-17T08:43:16;9.80;93.60
8372;DHT22;4223;48.724;8.982;2022-09-17T08:45:44;9.90;97.30
8372;DHT22;4223;48.724;8.982;2022-09-17T08:48:18;10.00;90.10
8372;DHT22;4223;48.724;8.982;2022-09-17T08:50:45;10.10;89.10
8372;DHT22;4223;48.724;8.982;2022-09-17T08:53:25;9.90;68.60
8372;DHT22;4223;48.724;8.982;2022-09-17T08:55:59;10.10;72.00
8372;DHT22;4223;48.724;8.982;2022-09-17T08:58:40;10.30;59.50
8372;DHT22;4223;48.724;8.982;2022-09-17T09:01:27;10.50;29.50
8372;DHT22;4223;48.724;8.982;2022-09-17T09:04:21;10.60;38.30
8372;DHT22;4223;48.724;8.982;2022-09-17T09:06:53;10.60;32.70
8372;DHT22;4223;48.724;8.982;2022-09-17T09:09:28;10.40;25.70
8372;DHT22;4223;48.724;8.982;2022-09-17T09:12:02;10.30;51.90
8372;DHT22;4223;48.724;8.982;2022-09-17T09:14:32;10.20;46.40
8372;DHT22;4223;48.724;8.982;2022-09-17T09:17:06;10.20;70.20
8372;DHT22;4223;48.724;8.982;2022-09-17T09:19:40;10.10;52.00
8372;DHT22;4223;48.724;8.982;2022-09-17T09:22:18;10.00;55.30
8372;DHT22;4223;48.724;8.982;2022-09-17T09:24:52;10.00;55.40
8372;DHT22;4223;48.724;8.982;2022-09-17T09:27:26;10.20;34.10
8372;DHT22;4223;48.724;8.982;2022-09-17T09:29:59;10.20;47.40
8372;DHT22;4223;48.724;8.982;2022-09-17T09:32:40;10.30;52.40
8372;DHT22;4223;48.724;8.982;2022-09-17T09:35:17;10.30;35.80
8372;DHT22;4223;48.724;8.982;2022-09-17T09:37:51;10.30;34.90
8372;DHT22;4223;48.724;8.982;2022-09-17T09:40:32;10.40;36.80
8372;DHT22;4223;48.724;8.982;2022-09-17T09:43:02;10.40;31.40
8372;DHT22;4223;48.724;8.982;2022-09-17T09:45:40;10.30;6.20
8372;DHT22;4223;48.724;8.982;2022-09-17T09:48:15;10.30;27.40
8372;DHT22;4223;48.724;8.982;2022-09-17T09:50:48;10.40;20.30
8372;DHT22;4223;48.724;8.982;2022-09-17T09:53:23;10.60;30.10
8372;DHT22;4223;48.724;8.982;2022-09-17T09:56:22;10.80;23.20
8372;DHT22;4223;48.724;8.982;2022-09-17T09:58:50;11.40;1.00
8372;DHT22;4223;48.724;8.982;2022-09-17T10:01:18;11.70;1.00
8372;DHT22;4223;48.724;8.982;2022-09-17T10:03:46;11.90;1.00
8372;DHT22;4223;48.724;8.982;2022-09-17T10:06:16;12.00;1.00
8372;DHT22;4223;48.724;8.982;2022-09-17T10:09:08;11.90;1.00
8372;DHT22;4223;48.724;8.982;2022-09-17T10:11:35;11.80;1.00
8372;DHT22;4223;48.724;8.982;2022-09-17T10:14:14;11.70;99.90
8372;DHT22;4223;48.724;8.982;2022-09-17T10:16:41;11.80;1.00
8372;DHT22;4223;48.724;8.982;2022-09-17T10:19:12;12.70;99.90
8372;DHT22;4223;48.724;8.982;2022-09-17T10:21:42;13.80;1.00
8372;DHT22;4223;48.724;8.982;2022-09-17T10:24:23;14.70;1.00
8372;DHT22;4223;48.724;8.982;2022-09-17T10:26:51;15.50;99.90
8372;DHT22;4223;48.724;8.982;2022-09-17T10:29:19;15.90;1.00
8372;DHT22;4223;48.724;8.982;2022-09-17T10:31:47;15.30;99.90
8372;DHT22;4223;48.724;8.982;2022-09-17T10:34:19;15.10;1.00
8372;DHT22;4223;48.724;8.982;2022-09-17T10:36:48;14.80;1.00
8372;DHT22;4223;48.724;8.982;2022-09-17T10:39:33;15.10;1.00
8372;DHT22;4223;48.724;8.982;2022-09-17T10:42:02;15.10;1.00
8372;DHT22;4223;48.724;8.982;2022-09-17T10:44:31;14.00;99.90
8372;DHT22;4223;48.724;8.982;2022-09-17T10:47:04;14.90;1.00
8372;DHT22;4223;48.724;8.982;2022-09-17T10:49:39;15.50;1.00
8372;DHT22;4223;48.724;8.982;2022-09-17T10:52:18;14.30;99.90
8372;DHT22;4223;48.724;8.982;2022-09-17T10:58:10;13.60;1.00
8372;DHT22;4223;48.724;8.982;2022-09-17T11:00:49;13.30;1.00
8372;DHT22;4223;48.724;8.982;2022-09-17T11:03:38;13.10;99.90
8372;DHT22;4223;48.724;8.982;2022-09-17T11:09:09;13.90;23.50
8372;DHT22;4223;48.724;8.982;2022-09-17T11:11:45;14.80;99.90
8372;DHT22;4223;48.724;8.982;2022-09-17T11:14:23;14.70;1.00
8372;DHT22;4223;48.724;8.982;2022-09-17T11:17:02;14.20;1.00
8372;DHT22;4223;48.724;8.982;2022-09-17T11:19:42;13.50;22.10
8372;DHT22;4223;48.724;8.982;2022-09-17T11:22:16;13.90;99.90
8372;DHT22;4223;48.724;8.982;2022-09-17T11:28:03;14.70;99.90
8372;DHT22;4223;48.724;8.982;2022-09-17T11:30:42;15.40;1.00
8372;DHT22;4223;48.724;8.982;2022-09-17T11:33:22;15.70;1.00
8372;DHT22;4223;48.724;8.982;2022-09-17T11:35:56;15.50;1.00
8372;DHT22;4223;48.724;8.982;2022-09-17T11:38:29;15.70;1.00
8372;DHT22;4223;48.724;8.982;2022-09-17T11:41:05;15.60;1.00
8372;DHT22;4223;48.724;8.982;2022-09-17T11:43:35;15.70;1.00
8372;DHT22;4223;48.724;8.982;2022-09-17T11:46:07;15.90;1.00
8372;DHT22;4223;48.724;8.982;2022-09-17T11:48:38;16.30;99.90
8372;DHT22;4223;48.724;8.982;2022-09-17T11:51:19;16.50;99.90
8372;DHT22;4223;48.724;8.982;2022-09-17T11:53:50;16.30;99.90
8372;DHT22;4223;48.724;8.982;2022-09-17T11:56:25;16.00;99.90
8372;DHT22;4223;48.724;8.982;2022-09-17T11:58:59;16.00;1.00
8372;DHT22;4223;48.724;8.982;2022-09-17T12:01:31;15.90;99.90
8372;DHT22;4223;48.724;8.982;2022-09-17T12:04:16;15.40;99.90
8372;DHT22;4223;48.724;8.982;2022-09-17T12:06:53;14.80;1.00
8372;DHT22;4223;48.724;8.982;2022-09-17T12:09:25;14.10;1.00
8372;DHT22;4223;48.724;8.982;2022-09-17T12:12:00;13.90;99.90
8372;DHT22;4223;48.724;8.982;2022-09-17T12:14:33;13.80;1.00
8372;DHT22;4223;48.724;8.982;2022-09-17T12:17:02;13.70;1.00
8372;DHT22;4223;48.724;8.982;2022-09-17T12:19:33;13.70;1.00
8372;DHT22;4223;48.724;8.982;2022-09-17T12:22:05;13.50;1.00
8372;DHT22;4223;48.724;8.982;2022-09-17T12:24:34;13.60;1.00
8372;DHT22;4223;48.724;8.982;2022-09-17T12:27:18;13.50;1.00
8372;DHT22;4223;48.724;8.982;2022-09-17T12:30:18;13.60;1.00
8372;DHT22;4223;48.724;8.982;2022-09-17T12:32:58;13.70;1.00
8372;DHT22;4223;48.724;8.982;2022-09-17T12:38:43;13.70;1.00
8372;DHT22;4223;48.724;8.982;2022-09-17T12:41:18;13.70;88.30
8372;DHT22;4223;48.724;8.982;2022-09-17T12:44:01;13.40;93.40
8372;DHT22;4223;48.724;8.982;2022-09-17T12:46:51;13.20;1.00
8372;DHT22;4223;48.724;8.982;2022-09-17T12:49:38;12.80;1.00
8372;DHT22;4223;48.724;8.982;2022-09-17T12:52:13;12.60;99.90
8372;DHT22;4223;48.724;8.982;2022-09-17T12:55:06;12.40;1.00
8372;DHT22;4223;48.724;8.982;2022-09-17T12:57:40;12.20;1.00
8372;DHT22;4223;48.724;8.982;2022-09-17T13:00:12;12.10;1.00
8372;DHT22;4223;48.724;8.982;2022-09-17T13:02:41;11.50;1.00
8372;DHT22;4223;48.724;8.982;2022-09-17T13:05:50;11.00;25.90
8372;DHT22;4223;48.724;8.982;2022-09-17T13:08:51;10.80;62.00
8372;DHT22;4223;48.724;8.982;2022-09-17T13:14:18;10.30;76.60
8372;DHT22;4223;48.724;8.982;2022-09-17T13:16:53;10.10;91.40
8372;DHT22;4223;48.724;8.982;2022-09-17T13:19:29;10.00;82.00
8372;DHT22;4223;48.724;8.982;2022-09-17T13:22:01;10.20;91.50
8372;DHT22;4223;48.724;8.982;2022-09-17T13:24:30;10.30;99.90
8372;DHT22;4223;48.724;8.982;2022-09-17T13:26:59;10.60;99.90
8372;DHT22;4223;48.724;8.982;2022-09-17T13:29:57;10.90;92.60
8372;DHT22;4223;48.724;8.982;2022-09-17T13:32:46;11.40;94.20
8372;DHT22;4223;48.724;8.982;2022-09-17T13:35:50;12.30;78.30
8372;DHT22;4223;48.724;8.982;2022-09-17T13:38:21;13.00;85.80
8372;DHT22;4223;48.724;8.982;2022-09-17T13:40:48;13.50;11.90
8372;DHT22;4223;48.724;8.982;2022-09-17T13:43:18;13.90;1.00
8372;DHT22;4223;48.724;8.982;2022-09-17T13:46:07;13.90;1.00
8372;DHT22;4223;48.724;8.982;2022-09-17T13:48:45;14.00;1.00
8372;DHT22;4223;48.724;8.982;2022-09-17T13:51:45;14.30;1.00
8372;DHT22;4223;48.724;8.982;2022-09-17T13:54:14;14.50;1.00
8372;DHT22;4223;48.724;8.982;2022-09-17T13:56:43;14.50;1.00
8372;DHT22;4223;48.724;8.982;2022-09-17T13:59:14;14.10;1.00
8372;DHT22;4223;48.724;8.982;2022-09-17T14:01:59;14.10;99.90
8372;DHT22;4223;48.724;8.982;2022-09-17T14:04:48;14.50;91.00
8372;DHT22;4223;48.724;8.982;2022-09-17T14:07:34;14.60;99.90
8372;DHT22;4223;48.724;8.982;2022-09-17T14:10:34;15.10;1.00
8372;DHT22;4223;48.724;8.982;2022-09-17T14:13:25;14.80;99.90
8372;DHT22;4223;48.724;8.982;2022-09-17T14:15:57;14.90;99.90
8372;DHT22;4223;48.724;8.982;2022-09-17T14:18:37;14.60;1.00
8372;DHT22;4223;48.724;8.982;2022-09-17T14:21:23;14.10;99.90
8372;DHT22;4223;48.724;8.982;2022-09-17T14:23:55;14.70;99.90
8372;DHT22;4223;48.724;8.982;2022-09-17T14:26:47;14.90;1.00
8372;DHT22;4223;48.724;8.982;2022-09-17T14:29:27;14.80;1.00
8372;DHT22;4223;48.724;8.982;2022-09-17T14:31:58;14.50;1.00
8372;DHT22;4223;48.724;8.982;2022-09-17T14:34:26;14.20;99.90
8372;DHT22;4223;48.724;8.982;2022-09-17T14:36:55;13.90;99.90
8372;DHT22;4223;48.724;8.982;2022-09-17T14:39:26;13.50;1.00
8372;DHT22;4223;48.724;8.982;2022-09-17T14:41:53;13.40;99.90
8372;DHT22;4223;48.724;8.982;2022-09-17T14:44:23;13.30;1.00
8372;DHT22;4223;48.724;8.982;2022-09-17T14:46:54;13.80;1.00
8372;DHT22;4223;48.724;8.982;2022-09-17T14:49:23;14.10;1.00
8372;DHT22;4223;48.724;8.982;2022-09-17T14:51:50;14.50;99.90
8372;DHT22;4223;48.724;8.982;2022-09-17T14:54:23;14.40;99.90
8372;DHT22;4223;48.724;8.982;2022-09-17T14:57:01;14.10;99.90
8372;DHT22;4223;48.724;8.982;2022-09-17T14:59:40;13.70;99.90
8372;DHT22;4223;48.724;8.982;2022-09-17T15:02:28;13.30;99.90
8372;DHT22;4223;48.724;8.982;2022-09-17T15:04:57;13.20;87.30
8372;DHT22;4223;48.724;8.982;2022-09-17T15:07:25;13.10;99.90
8372;DHT22;4223;48.724;8.982;2022-09-17T15:10:04;13.10;99.90
8372;DHT22;4223;48.724;8.982;2022-09-17T15:12:31;13.00;1.20
8372;DHT22;4223;48.724;8.982;2022-09-17T15:14:58;12.90;99.60
8372;DHT22;4223;48.724;8.982;2022-09-17T15:17:24;12.90;1.00
8372;DHT22;4223;48.724;8.982;2022-09-17T15:19:54;12.90;99.90
8372;DHT22;4223;48.724;8.982;2022-09-17T15:22:25;13.00;1.00
8372;DHT22;4223;48.724;8.982;2022-09-17T15:24:56;13.10;1.00
8372;DHT22;4223;48.724;8.982;2022-09-17T15:27:26;12.70;99.90
8372;DHT22;4223;48.724;8.982;2022-09-17T15:29:57;12.70;45.20
8372;DHT22;4223;48.724;8.982;2022-09-17T15:32:25;12.80;1.00
8372;DHT22;4223;48.724;8.982;2022-09-17T15:37:57;12.70;1.00
8372;DHT22;4223;48.724;8.982;2022-09-17T15:40:28;12.70;99.90
8372;DHT22;4223;48.724;8.982;2022-09-17T15:43:04;12.70;1.00
8372;DHT22;4223;48.724;8.982;2022-09-17T15:45:32;12.60;99.90
8372;DHT22;4223;48.724;8.982;2022-09-17T15:48:04;12.50;99.90
8372;DHT22;4223;48.724;8.982;2022-09-17T15:50:31;12.30;1.00
8372;DHT22;4223;48.724;8.982;2022-09-17T15:53:12;12.20;99.90
8372;DHT22;4223;48.724;8.982;2022-09-17T15:55:42;12.30;99.90
8372;DHT22;4223;48.724;8.982;2022-09-17T15:58:22;12.30;99.90
8372;DHT22;4223;48.724;8.982;2022-09-17T16:07:27;12.10;1.00
8372;DHT22;4223;48.724;8.982;2022-09-17T16:09:54;11.90;1.00
8372;DHT22;4223;48.724;8.982;2022-09-17T16:12:26;12.00;99.90
8372;DHT22;4223;48.724;8.982;2022-09-17T16:14:55;12.00;99.90
8372;DHT22;4223;48.724;8.982;2022-09-17T16:17:32;12.10;99.90
8372;DHT22;4223;48.724;8.982;2022-09-17T16:20:05;12.20;1.00
8372;DHT22;4223;48.724;8.982;2022-09-17T16:22:34;12.30;99.90
8372;DHT22;4223;48.724;8.982;2022-09-17T16:25:01;12.40;1.00
8372;DHT22;4223;48.724;8.982;2022-09-17T16:27:32;12.30;99.90
8372;DHT22;4223;48.724;8.982;2022-09-17T16:30:03;12.30;4.60
8372;DHT22;4223;48.724;8.982;2022-09-17T16:32:30;12.10;99.90
8372;DHT22;4223;48.724;8.982;2022-09-17T16:34:57;12.10;99.90
8372;DHT22;4223;48.724;8.982;2022-09-17T16:37:24;12.10;1.00
8372;DHT22;4223;48.724;8.982;2022-09-17T16:39:51;12.10;99.90
8372;DHT22;4223;48.724;8.982;2022-09-17T16:42:18;12.10;1.00
8372;DHT22;4223;48.724;8.982;2022-09-17T16:44:46;12.00;1.00
8372;DHT22;4223;48.724;8.982;2022-09-17T16:47:13;11.90;1.00
8372;DHT22;4223;48.724;8.982;2022-09-17T16:49:40;11.70;99.90
8372;DHT22;4223;48.724;8.982;2022-09-17T16:52:06;11.70;1.00
8372;DHT22;4223;48.724;8.982;2022-09-17T16:54:33;11.60;47.80
8372;DHT22;4223;48.724;8.982;2022-09-17T16:57:00;11.50;56.80
8372;DHT22;4223;48.724;8.982;2022-09-17T16:59:27;11.50;99.90
8372;DHT22;4223;48.724;8.982;2022-09-17T17:01:55;11.50;1.00
8372;DHT22;4223;48.724;8.982;2022-09-17T17:04:22;11.40;1.00
8372;DHT22;4223;48.724;8.982;2022-09-17T17:06:49;11.30;1.00
8372;DHT22;4223;48.724;8.982;2022-09-17T17:09:16;11.20;1.00
8372;DHT22;4223;48.724;8.982;2022-09-17T17:11:43;11.10;1.00
8372;DHT22;4223;48.724;8.982;2022-09-17T17:14:10;11.10;1.00